Time;durP1;ratioP1;P1;durP2;ratioP2;P2;SDS_P1;SDS_P2;PMS_P1;PMS_P2;Temp;Humidity;BMP_temperature;BMP_pressure;BME280_temperature;BME280_humidity;BME280_pressure;Samples;Min_cycle;Max_cycle;Signal;HPM_P1;HPM_P2
2022/11/14 05:02:20;;;;;;;15.02;10.32;;;7.70;99.90;;;;;;6080676;23;20281;-68
2022/11/14 05:04:47;;;;;;;26.40;11.45;;;7.70;99.90;;;;;;6089427;23;20189;-69
2022/11/14 05:07:14;;;;;;;20.20;10.75;;;7.70;99.90;;;;;;6090613;23;20183;-69
2022/11/14 05:09:41;;;;;;;17.45;13.23;;;7.70;99.90;;;;;;6089213;23;20193;-69
2022/11/14 05:12:08;;;;;;;11.57;9.65;;;7.70;99.90;;;;;;6092318;23;20218;-70
2022/11/14 05:14:34;;;;;;;19.27;10.25;;;7.70;99.90;;;;;;6089729;23;20191;-70
2022/11/14 05:17:01;;;;;;;17.88;10.93;;;7.70;99.90;;;;;;6092810;23;20535;-69
2022/11/14 05:19:29;;;;;;;21.98;12.00;;;7.70;99.90;;;;;;6090565;23;20213;-70
2022/11/14 05:21:56;;;;;;;17.27;9.68;;;7.70;99.90;;;;;;6092536;23;20214;-70
2022/11/14 05:24:22;;;;;;;22.63;13.23;;;7.70;99.90;;;;;;6090212;23;20827;-69
2022/11/14 05:26:49;;;;;;;22.52;11.55;;;7.60;99.90;;;;;;6092937;23;20210;-68
2022/11/14 05:29:16;;;;;;;13.82;7.47;;;7.70;99.90;;;;;;6092421;23;20197;-69
2022/11/14 05:31:43;;;;;;;20.52;10.50;;;7.60;99.90;;;;;;6093081;23;20585;-69
2022/11/14 05:34:09;;;;;;;15.82;7.25;;;7.60;99.90;;;;;;6092565;23;20213;-68
2022/11/14 05:36:37;;;;;;;12.95;7.80;;;7.60;99.90;;;;;;6093877;23;20190;-69
2022/11/14 05:39:04;;;;;;;37.30;11.90;;;7.60;99.90;;;;;;6094400;23;20513;-69
2022/11/14 05:41:31;;;;;;;8.30;5.82;;;7.60;99.90;;;;;;6090425;23;20206;-69
2022/11/14 05:43:57;;;;;;;10.38;7.38;;;7.60;99.90;;;;;;6092676;23;20183;-70
2022/11/14 05:46:24;;;;;;;19.65;12.35;;;7.60;99.90;;;;;;6093495;23;20198;-69
2022/11/14 05:48:50;;;;;;;16.55;11.48;;;7.60;99.90;;;;;;6093533;23;20645;-70
2022/11/14 05:51:17;;;;;;;5.40;4.75;;;7.60;99.90;;;;;;6092175;23;20549;-69
2022/11/14 05:53:45;;;;;;;11.13;7.90;;;7.60;99.90;;;;;;6093135;23;20205;-69
2022/11/14 05:56:13;;;;;;;24.70;11.70;;;7.50;99.90;;;;;;6092670;23;20183;-69
2022/11/14 05:58:40;;;;;;;12.23;8.75;;;7.50;99.90;;;;;;6094184;23;20187;-70
2022/11/14 06:01:11;;;;;;;20.95;8.65;;;7.50;99.90;;;;;;6103810;23;20214;-69
2022/11/14 06:03:40;;;;;;;16.83;12.18;;;7.50;99.90;;;;;;6103961;23;20178;-70
2022/11/14 06:06:09;;;;;;;21.05;11.10;;;7.50;99.90;;;;;;6103312;23;20657;-70
2022/11/14 06:08:36;;;;;;;11.18;9.63;;;7.50;99.90;;;;;;6094552;23;20201;-70
2022/11/14 06:11:05;;;;;;;26.15;10.75;;;7.50;99.90;;;;;;6092698;23;20225;-69
2022/11/14 06:13:33;;;;;;;15.02;10.85;;;7.50;99.90;;;;;;6092878;23;20187;-70
2022/11/14 06:16:00;;;;;;;28.13;11.00;;;7.50;99.90;;;;;;6093005;23;20178;-70
2022/11/14 06:18:28;;;;;;;19.23;11.90;;;7.40;99.90;;;;;;6093448;23;20712;-70
2022/11/14 06:20:58;;;;;;;21.27;9.43;;;7.40;99.90;;;;;;6091379;23;20202;-69
2022/11/14 06:23:25;;;;;;;17.50;11.60;;;7.40;99.90;;;;;;6092212;23;20167;-70
2022/11/14 06:25:52;;;;;;;18.95;11.40;;;7.30;99.90;;;;;;6092730;23;20217;-71
2022/11/14 06:28:20;;;;;;;20.30;10.50;;;7.30;99.90;;;;;;6093741;23;20194;-71
2022/11/14 06:30:46;;;;;;;14.57;9.65;;;7.30;99.90;;;;;;6092553;23;20206;-71
2022/11/14 06:33:13;;;;;;;27.30;11.95;;;7.30;99.90;;;;;;6093190;23;20187;-70
2022/11/14 06:35:40;;;;;;;15.75;9.57;;;7.30;99.90;;;;;;6092323;23;20182;-70
2022/11/14 06:38:06;;;;;;;13.90;6.85;;;7.30;99.90;;;;;;6092689;23;20496;-71
2022/11/14 06:40:33;;;;;;;24.27;9.25;;;7.30;99.90;;;;;;6093048;23;20218;-69
2022/11/14 06:43:00;;;;;;;5.75;4.50;;;7.20;99.90;;;;;;6093666;23;20645;-70
2022/11/14 06:45:28;;;;;;;8.50;6.97;;;7.20;99.90;;;;;;6093765;23;20210;-71
2022/11/14 06:47:58;;;;;;;7.30;6.68;;;7.20;99.90;;;;;;6093526;23;20193;-70
2022/11/14 06:50:25;;;;;;;7.10;5.53;;;7.20;99.90;;;;;;6091320;23;20173;-70
2022/11/14 06:52:51;;;;;;;20.65;11.57;;;7.10;99.90;;;;;;6101620;23;20189;-70
2022/11/14 06:55:18;;;;;;;24.83;11.32;;;7.10;99.90;;;;;;6097718;23;20186;-71
2022/11/14 06:57:45;;;;;;;15.05;7.55;;;7.10;99.90;;;;;;6088169;23;20198;-71
2022/11/14 07:00:12;;;;;;;7.07;6.43;;;7.10;99.90;;;;;;6091285;23;20673;-71
2022/11/14 07:02:45;;;;;;;22.90;13.90;;;7.10;99.90;;;;;;6092115;23;20244;-71
2022/11/14 07:05:11;;;;;;;20.70;10.45;;;7.10;99.90;;;;;;6089409;23;20178;-70
2022/11/14 07:07:38;;;;;;;20.55;11.23;;;7.10;99.90;;;;;;6093184;23;20187;-71
2022/11/14 07:10:05;;;;;;;17.67;8.13;;;7.10;99.90;;;;;;6092049;23;20186;-71
2022/11/14 07:12:32;;;;;;;19.17;11.13;;;7.10;99.90;;;;;;6092969;23;20206;-70
2022/11/14 07:14:59;;;;;;;12.57;7.55;;;7.10;99.90;;;;;;6091641;23;20646;-70
2022/11/14 07:17:26;;;;;;;19.27;9.10;;;7.10;99.90;;;;;;6093384;23;20201;-71
2022/11/14 07:19:54;;;;;;;8.40;5.38;;;7.10;99.90;;;;;;6091686;23;20190;-71
2022/11/14 07:22:20;;;;;;;10.82;9.40;;;7.10;99.90;;;;;;6091888;23;20720;-71
2022/11/14 07:24:47;;;;;;;20.00;11.45;;;7.10;99.90;;;;;;6092143;23;20504;-70
2022/11/14 07:27:13;;;;;;;9.77;6.15;;;7.10;99.90;;;;;;6092623;23;20257;-71
2022/11/14 07:29:40;;;;;;;17.48;8.95;;;7.10;99.90;;;;;;6091832;23;20182;-70
2022/11/14 07:32:07;;;;;;;8.70;8.00;;;7.10;99.90;;;;;;6092367;23;20217;-71
2022/11/14 07:34:33;;;;;;;8.93;6.97;;;7.10;99.90;;;;;;6090950;23;20186;-71
2022/11/14 07:37:01;;;;;;;10.50;7.38;;;7.10;99.90;;;;;;6092911;23;20193;-71
2022/11/14 07:39:28;;;;;;;15.13;8.63;;;7.10;99.90;;;;;;6092115;23;20187;-70
2022/11/14 07:41:55;;;;;;;23.92;6.75;;;7.20;99.90;;;;;;6092888;23;20224;-71
2022/11/14 07:44:21;;;;;;;31.23;8.75;;;7.20;99.90;;;;;;6090575;23;20218;-71
2022/11/14 07:46:48;;;;;;;13.27;9.15;;;7.20;99.90;;;;;;6092738;23;20206;-71
2022/11/14 07:49:16;;;;;;;22.30;11.23;;;7.30;99.90;;;;;;6090578;23;20713;-70
2022/11/14 07:51:42;;;;;;;26.75;9.45;;;7.30;99.90;;;;;;6092905;23;20218;-71
2022/11/14 07:54:12;;;;;;;21.98;10.35;;;7.30;99.90;;;;;;6091168;23;20210;-71
2022/11/14 07:56:38;;;;;;;18.98;7.35;;;7.30;99.90;;;;;;6092715;23;20233;-72
2022/11/14 07:59:05;;;;;;;24.58;11.07;;;7.40;99.90;;;;;;6091458;23;20206;-72
2022/11/14 08:01:32;;;;;;;22.95;11.32;;;7.40;99.90;;;;;;6091671;23;20214;-71
2022/11/14 08:03:59;;;;;;;16.77;12.02;;;7.40;99.90;;;;;;6091075;23;20188;-72
2022/11/14 08:06:26;;;;;;;9.43;7.10;;;7.40;99.90;;;;;;6091713;23;20210;-71
2022/11/14 08:08:53;;;;;;;17.52;9.57;;;7.40;99.90;;;;;;6091842;23;20528;-71
2022/11/14 08:11:46;;;;;;;8.13;7.03;;;7.40;99.90;;;;;;6093140;23;20210;-71
2022/11/14 08:14:08;;;;;;;26.35;11.85;;;7.40;99.90;;;;;;6091454;23;20321;-71
2022/11/14 08:16:34;;;;;;;18.98;9.63;;;7.50;99.90;;;;;;6092441;23;20182;-71
2022/11/14 08:19:01;;;;;;;28.23;12.80;;;7.50;99.90;;;;;;6092120;23;20213;-71
2022/11/14 08:21:28;;;;;;;4.80;2.92;;;7.50;99.90;;;;;;6090894;23;20207;-70
2022/11/14 08:23:54;;;;;;;13.43;7.60;;;7.50;99.90;;;;;;6089580;23;20189;-70
2022/11/14 08:26:22;;;;;;;12.35;8.90;;;7.50;99.90;;;;;;6091624;23;20198;-71
2022/11/14 08:28:52;;;;;;;10.95;6.85;;;7.50;99.90;;;;;;6091945;23;20189;-70
2022/11/14 08:31:19;;;;;;;15.30;9.07;;;7.50;99.90;;;;;;6091517;23;20209;-71
2022/11/14 08:33:48;;;;;;;5.82;5.32;;;7.50;99.90;;;;;;6090757;23;20190;-71
2022/11/14 08:36:15;;;;;;;8.25;5.55;;;7.60;99.90;;;;;;6091887;23;20182;-71
2022/11/14 08:38:42;;;;;;;9.77;7.47;;;7.50;99.90;;;;;;6091519;23;20201;-70
2022/11/14 08:41:08;;;;;;;9.38;6.30;;;7.60;99.90;;;;;;6091302;23;20550;-70
2022/11/14 08:43:36;;;;;;;15.35;10.38;;;7.60;99.90;;;;;;6090813;23;20205;-70
2022/11/14 08:46:05;;;;;;;7.82;5.50;;;7.60;99.90;;;;;;6092260;23;20206;-70
2022/11/14 08:48:32;;;;;;;6.88;5.72;;;7.60;99.90;;;;;;6091966;23;20507;-71
2022/11/14 08:51:03;;;;;;;16.27;11.07;;;7.60;99.90;;;;;;6091536;23;20202;-70
2022/11/14 08:53:29;;;;;;;14.85;10.23;;;7.70;99.90;;;;;;6090924;23;20192;-71
2022/11/14 08:55:56;;;;;;;13.80;9.30;;;7.70;99.90;;;;;;6090172;23;20664;-71
2022/11/14 08:58:23;;;;;;;20.08;5.68;;;7.70;99.90;;;;;;6092517;23;20190;-70
2022/11/14 09:00:51;;;;;;;12.85;9.45;;;7.70;99.90;;;;;;6093053;23;20549;-71
2022/11/14 09:03:18;;;;;;;17.17;9.73;;;7.80;99.90;;;;;;6093354;23;20190;-71
2022/11/14 09:05:50;;;;;;;5.43;5.18;;;7.80;99.90;;;;;;6102618;23;20185;-70
2022/11/14 09:08:17;;;;;;;9.02;5.53;;;7.80;99.90;;;;;;6093935;23;20172;-70
2022/11/14 09:10:44;;;;;;;10.30;7.55;;;7.80;99.90;;;;;;6093438;23;20213;-70
2022/11/14 09:13:10;;;;;;;21.77;10.57;;;7.80;99.90;;;;;;6093675;23;20198;-70
2022/11/14 09:15:37;;;;;;;12.65;7.40;;;7.90;99.90;;;;;;6094223;23;20182;-69
2022/11/14 09:18:05;;;;;;;17.27;11.93;;;7.90;99.90;;;;;;6094334;23;20518;-70
2022/11/14 09:20:32;;;;;;;18.13;11.88;;;8.00;99.90;;;;;;6093351;23;20207;-70
2022/11/14 09:22:59;;;;;;;20.15;7.82;;;8.00;99.90;;;;;;6092464;23;20187;-70
2022/11/14 09:25:26;;;;;;;5.45;5.07;;;8.10;99.90;;;;;;6092558;23;20198;-69
2022/11/14 09:27:53;;;;;;;22.65;10.30;;;8.00;99.90;;;;;;6093994;23;20204;-70
2022/11/14 09:30:21;;;;;;;7.10;6.15;;;8.10;99.90;;;;;;6093250;23;20189;-70
2022/11/14 09:32:48;;;;;;;13.43;7.75;;;8.10;99.90;;;;;;6092725;23;20186;-69
2022/11/14 09:35:16;;;;;;;13.07;7.10;;;8.10;99.90;;;;;;6093456;23;20182;-70
2022/11/14 09:37:43;;;;;;;21.48;8.77;;;8.10;99.90;;;;;;6093147;23;20182;-70
2022/11/14 09:40:12;;;;;;;19.95;10.73;;;8.10;99.90;;;;;;6093024;23;20182;-70
2022/11/14 09:42:57;;;;;;;22.38;11.10;;;8.20;99.90;;;;;;6093315;23;20294;-70
2022/11/14 09:45:24;;;;;;;11.20;6.53;;;8.20;99.90;;;;;;6093468;23;20167;-70
2022/11/14 09:47:55;;;;;;;16.77;12.80;;;8.20;99.90;;;;;;6093940;23;20306;-70
2022/11/14 09:50:28;;;;;;;18.40;13.60;;;8.20;99.90;;;;;;6092572;23;20630;-70
2022/11/14 09:52:57;;;;;;;7.90;4.13;;;8.30;99.90;;;;;;6092711;23;20179;-70
2022/11/14 09:55:28;;;;;;;20.73;8.63;;;8.30;99.90;;;;;;6091890;23;20190;-70
2022/11/14 09:57:56;;;;;;;16.40;9.18;;;8.20;99.90;;;;;;6093369;23;20163;-70
2022/11/14 10:00:24;;;;;;;6.82;6.20;;;8.30;99.90;;;;;;6093349;23;20293;-71
2022/11/14 10:03:07;;;;;;;16.10;7.57;;;8.30;99.90;;;;;;6092612;23;20167;-69
2022/11/14 10:05:46;;;;;;;9.20;8.32;;;8.30;99.90;;;;;;6092755;23;20235;-70
2022/11/14 10:08:28;;;;;;;10.85;6.72;;;8.40;99.90;;;;;;6093143;23;20201;-71
2022/11/14 10:10:57;;;;;;;15.15;10.15;;;8.40;99.90;;;;;;6093060;23;20210;-71
2022/11/14 10:13:37;;;;;;;15.15;7.80;;;8.50;99.90;;;;;;6091594;23;20190;-70
2022/11/14 10:16:10;;;;;;;6.35;5.75;;;8.60;99.90;;;;;;6093357;23;20168;-70
2022/11/14 10:18:54;;;;;;;15.98;8.35;;;8.70;99.90;;;;;;6093300;23;20198;-70
2022/11/14 10:21:40;;;;;;;14.52;8.88;;;8.60;99.90;;;;;;6092365;23;20528;-70
2022/11/14 10:24:23;;;;;;;9.75;8.85;;;8.70;99.90;;;;;;6092589;23;20182;-70
2022/11/14 10:27:00;;;;;;;13.13;8.20;;;8.80;99.90;;;;;;6093152;23;20187;-70
2022/11/14 10:29:42;;;;;;;13.25;11.93;;;8.80;99.90;;;;;;6093591;23;20175;-69
2022/11/14 10:32:18;;;;;;;12.95;7.60;;;8.80;99.90;;;;;;6093701;23;20215;-69
2022/11/14 10:34:50;;;;;;;14.95;11.57;;;8.90;99.90;;;;;;6091326;23;20171;-70
2022/11/14 10:37:24;;;;;;;7.75;6.85;;;8.80;99.90;;;;;;6091448;23;20163;-69
2022/11/14 10:39:52;;;;;;;21.95;12.80;;;8.90;99.90;;;;;;6092512;23;20275;-70
2022/11/14 10:42:25;;;;;;;13.98;7.03;;;8.90;99.90;;;;;;6092072;23;20213;-70
2022/11/14 10:44:56;;;;;;;6.95;6.28;;;9.00;99.90;;;;;;6091565;23;20167;-70
2022/11/14 10:47:25;;;;;;;15.02;8.15;;;9.00;99.90;;;;;;6093035;23;20203;-70
2022/11/14 10:49:55;;;;;;;10.73;6.20;;;9.10;99.90;;;;;;6090842;23;20732;-71
2022/11/14 10:52:31;;;;;;;14.13;10.82;;;9.10;99.90;;;;;;6092185;23;20210;-70
2022/11/14 10:55:05;;;;;;;9.70;8.27;;;9.10;99.90;;;;;;6092092;23;20181;-70
2022/11/14 10:57:32;;;;;;;8.20;7.13;;;9.10;99.90;;;;;;6092645;23;20168;-70
2022/11/14 10:59:59;;;;;;;8.13;5.35;;;9.20;99.90;;;;;;6092097;23;20580;-70
2022/11/14 11:02:26;;;;;;;5.70;3.80;;;9.10;99.90;;;;;;6093009;23;20233;-70
2022/11/14 11:04:52;;;;;;;7.35;6.10;;;9.00;99.90;;;;;;6090279;23;20191;-70
2022/11/14 11:13:05;;;;;;;14.07;8.43;;;8.90;99.90;;;;;;6091965;23;20669;-71
2022/11/14 11:15:40;;;;;;;15.05;6.68;;;9.00;99.90;;;;;;6090849;23;20194;-71
2022/11/14 11:18:25;;;;;;;12.85;4.10;;;9.10;99.90;;;;;;6092365;23;20170;-71
2022/11/14 11:21:03;;;;;;;18.05;10.45;;;9.20;99.90;;;;;;6091460;23;20207;-71
2022/11/14 11:23:32;;;;;;;14.50;9.20;;;9.20;99.90;;;;;;6091180;23;20535;-71
2022/11/14 11:26:04;;;;;;;16.95;8.68;;;9.30;99.90;;;;;;6091194;23;20294;-71
2022/11/14 11:28:32;;;;;;;14.07;7.60;;;9.40;99.90;;;;;;6093406;23;20195;-71
2022/11/14 11:31:01;;;;;;;16.63;7.25;;;9.40;99.90;;;;;;6092369;23;20215;-72
2022/11/14 11:33:29;;;;;;;10.32;8.20;;;9.40;99.90;;;;;;6092095;23;20183;-69
2022/11/14 11:35:59;;;;;;;22.50;10.98;;;9.50;99.90;;;;;;6090738;23;20283;-71
2022/11/14 11:38:28;;;;;;;15.35;10.15;;;9.60;99.90;;;;;;6091285;23;20634;-71
2022/11/14 11:41:03;;;;;;;13.68;11.32;;;9.60;99.90;;;;;;6091060;23;20207;-71
2022/11/14 11:43:36;;;;;;;12.70;7.88;;;9.60;99.90;;;;;;6091203;23;20651;-71
2022/11/14 11:46:08;;;;;;;25.33;10.65;;;9.70;99.90;;;;;;6091346;23;20173;-72
2022/11/14 11:48:38;;;;;;;17.73;8.52;;;9.70;99.90;;;;;;6091669;23;20295;-71
2022/11/14 11:51:06;;;;;;;14.82;9.10;;;9.80;99.90;;;;;;6090998;23;20214;-71
2022/11/14 11:53:38;;;;;;;9.77;6.85;;;9.80;99.90;;;;;;6092170;23;20193;-71
2022/11/14 11:56:11;;;;;;;12.63;8.48;;;9.80;99.90;;;;;;6090757;23;20257;-71
2022/11/14 11:58:45;;;;;;;12.75;8.82;;;9.90;99.90;;;;;;6092914;23;20175;-72
2022/11/14 12:01:12;;;;;;;15.52;7.85;;;9.90;99.90;;;;;;6091663;23;20209;-72
2022/11/14 12:03:41;;;;;;;12.90;7.75;;;9.90;99.90;;;;;;6092015;23;20182;-71
2022/11/14 12:06:15;;;;;;;7.85;6.40;;;9.90;99.90;;;;;;6090936;23;20211;-71
2022/11/14 12:08:51;;;;;;;12.13;7.82;;;10.00;99.90;;;;;;6092020;23;20517;-71
2022/11/14 12:11:22;;;;;;;7.72;5.60;;;10.00;99.90;;;;;;6091811;23;20210;-71
2022/11/14 12:14:01;;;;;;;6.97;6.28;;;10.00;99.90;;;;;;6091536;23;20174;-72
2022/11/14 12:16:57;;;;;;;16.27;8.43;;;9.90;99.90;;;;;;6091763;23;20176;-72
2022/11/14 12:19:45;;;;;;;11.82;7.72;;;9.90;99.90;;;;;;6090580;23;20267;-68
2022/11/14 12:22:25;;;;;;;18.85;9.00;;;10.00;99.90;;;;;;6091993;23;20211;-71
2022/11/14 12:25:26;;;;;;;9.85;8.40;;;10.00;99.90;;;;;;6090841;23;20504;-71
2022/11/14 12:28:11;;;;;;;15.30;9.77;;;10.10;99.90;;;;;;6082684;23;20522;-73
2022/11/14 12:30:40;;;;;;;10.52;5.45;;;10.10;99.90;;;;;;6092040;23;20709;-71
2022/11/14 12:33:11;;;;;;;7.72;5.40;;;10.20;99.90;;;;;;6090078;23;20571;-71
2022/11/14 12:35:49;;;;;;;9.30;7.13;;;10.20;99.90;;;;;;6092958;23;20172;-71
2022/11/14 12:38:18;;;;;;;11.88;8.00;;;10.20;99.90;;;;;;6096045;23;20219;-69
2022/11/14 12:40:51;;;;;;;16.10;7.60;;;10.20;99.90;;;;;;6095198;23;20249;-71
2022/11/14 12:43:32;;;;;;;6.03;5.45;;;10.30;99.90;;;;;;6094285;23;20174;-71
2022/11/14 12:46:02;;;;;;;3.55;3.10;;;10.20;99.90;;;;;;6095390;23;20171;-71
2022/11/14 12:48:34;;;;;;;15.43;8.60;;;10.20;99.90;;;;;;6095081;23;20211;-71
2022/11/14 12:51:03;;;;;;;17.70;9.38;;;10.20;99.90;;;;;;6094846;23;20211;-69
2022/11/14 12:53:41;;;;;;;7.53;4.90;;;10.20;99.90;;;;;;6094226;23;20187;-72
2022/11/14 12:56:36;;;;;;;14.00;6.97;;;10.20;99.90;;;;;;6096198;23;20191;-72
2022/11/14 12:59:30;;;;;;;7.43;5.30;;;10.20;99.90;;;;;;6095543;23;20175;-70
2022/11/14 13:02:24;;;;;;;10.40;7.90;;;10.30;99.90;;;;;;6083378;23;20218;-72
2022/11/14 13:05:13;;;;;;;6.63;5.30;;;10.30;99.90;;;;;;6080160;23;20183;-69
2022/11/14 13:07:48;;;;;;;9.07;4.60;;;10.30;99.90;;;;;;6095941;23;20189;-72
2022/11/14 13:10:26;;;;;;;8.13;7.32;;;10.30;99.90;;;;;;6095042;23;20173;-69
2022/11/14 13:24:19;;;;;;;8.48;7.68;;;10.30;99.90;;;;;;5976173;24;20555;-69
2022/11/14 13:26:51;;;;;;;9.35;8.48;;;10.30;99.90;;;;;;6065755;23;20279;-70
2022/11/14 13:29:58;;;;;;;12.25;7.35;;;10.30;99.90;;;;;;6095404;23;20205;-69
2022/11/14 13:33:04;;;;;;;9.73;5.80;;;10.30;99.90;;;;;;6095771;23;20232;-69
2022/11/14 13:35:48;;;;;;;5.97;4.38;;;10.30;99.90;;;;;;6094879;23;20352;-69
2022/11/14 13:38:48;;;;;;;6.18;5.50;;;10.20;99.90;;;;;;6095015;23;20165;-69
2022/11/14 13:41:44;;;;;;;19.20;9.73;;;10.20;99.90;;;;;;6094790;23;20718;-69
2022/11/14 13:44:31;;;;;;;7.22;6.53;;;10.20;99.90;;;;;;6093256;23;20184;-69
2022/11/14 13:47:12;;;;;;;10.52;4.22;;;10.20;99.90;;;;;;6093961;23;20177;-68
2022/11/14 13:50:00;;;;;;;20.88;6.88;;;10.20;99.90;;;;;;6092988;23;20169;-69
2022/11/14 13:52:31;;;;;;;10.52;7.22;;;10.20;99.90;;;;;;6093406;23;20213;-70
2022/11/14 13:54:58;;;;;;;7.43;6.07;;;10.20;99.90;;;;;;6091581;23;20168;-71
2022/11/14 13:57:34;;;;;;;12.55;8.35;;;10.20;99.90;;;;;;6092548;23;20190;-70
2022/11/14 14:00:10;;;;;;;7.25;5.38;;;10.20;99.90;;;;;;6093009;23;20171;-72
2022/11/14 14:02:54;;;;;;;16.10;9.00;;;10.20;99.90;;;;;;6092476;23;20850;-71
2022/11/14 14:05:47;;;;;;;17.05;9.70;;;10.10;99.90;;;;;;6092484;23;20505;-71
2022/11/14 14:08:28;;;;;;;16.00;10.25;;;10.20;99.90;;;;;;6091647;23;20203;-71
2022/11/14 14:11:08;;;;;;;9.88;7.72;;;10.10;99.90;;;;;;6092564;23;20234;-71
2022/11/14 14:13:47;;;;;;;5.18;4.10;;;10.10;99.90;;;;;;6091934;23;20175;-71
2022/11/14 14:16:22;;;;;;;10.40;8.43;;;10.10;99.90;;;;;;6092667;23;20692;-71
2022/11/14 14:18:59;;;;;;;16.45;10.18;;;10.10;99.90;;;;;;6092102;23;20163;-71
2022/11/14 14:21:36;;;;;;;10.70;7.15;;;10.10;99.90;;;;;;6092524;23;20478;-71
2022/11/14 14:24:17;;;;;;;13.45;7.25;;;10.00;99.90;;;;;;6091744;23;20618;-71
2022/11/14 14:26:57;;;;;;;16.70;7.68;;;10.00;99.90;;;;;;6093213;23;20171;-71
2022/11/14 14:29:26;;;;;;;11.40;8.10;;;9.90;99.90;;;;;;6092904;23;20197;-71
2022/11/14 14:31:53;;;;;;;9.95;7.10;;;9.90;99.90;;;;;;6092482;23;20218;-71
2022/11/14 14:34:24;;;;;;;12.50;7.55;;;9.90;99.90;;;;;;6091492;23;20194;-71
2022/11/14 14:36:53;;;;;;;14.07;9.48;;;9.90;99.90;;;;;;6092890;23;20179;-71
2022/11/14 14:39:24;;;;;;;15.32;9.13;;;9.90;99.90;;;;;;6092579;23;20188;-71
2022/11/14 14:41:53;;;;;;;14.98;6.95;;;9.90;99.90;;;;;;6092783;23;20292;-72
2022/11/14 14:44:25;;;;;;;9.35;7.10;;;9.80;99.90;;;;;;6091717;23;20271;-70
2022/11/14 14:46:53;;;;;;;9.38;6.78;;;9.80;99.90;;;;;;6092339;23;20292;-71
2022/11/14 14:49:23;;;;;;;17.88;9.20;;;9.70;99.90;;;;;;6092196;23;20214;-71
2022/11/14 14:51:49;;;;;;;20.38;7.63;;;9.70;99.90;;;;;;6095214;23;20208;-70
2022/11/14 14:54:23;;;;;;;12.23;6.28;;;9.70;99.90;;;;;;6090770;23;20182;-70
2022/11/14 14:56:54;;;;;;;10.05;8.50;;;9.60;99.90;;;;;;6093216;23;20503;-70
2022/11/14 14:59:23;;;;;;;13.25;7.55;;;9.60;99.90;;;;;;6092329;23;20178;-70
2022/11/14 15:01:50;;;;;;;19.48;9.30;;;9.60;99.90;;;;;;6092536;23;20215;-70
2022/11/14 15:04:19;;;;;;;16.73;9.90;;;9.50;99.90;;;;;;6089761;23;20701;-69
2022/11/14 15:06:46;;;;;;;18.55;8.52;;;9.50;99.90;;;;;;6093201;23;20183;-70
2022/11/14 15:09:18;;;;;;;16.70;7.75;;;9.50;99.90;;;;;;6091974;23;20218;-70
2022/11/14 15:11:50;;;;;;;10.75;5.97;;;9.50;99.90;;;;;;6093198;23;20318;-70
2022/11/14 15:14:20;;;;;;;11.88;9.35;;;9.40;99.90;;;;;;6091614;23;20505;-71
2022/11/14 15:16:49;;;;;;;14.52;8.18;;;9.30;99.90;;;;;;6091714;23;20187;-70
2022/11/14 15:19:19;;;;;;;9.68;8.15;;;9.30;99.90;;;;;;6091686;23;20203;-70
2022/11/14 15:22:01;;;;;;;14.77;8.27;;;9.20;99.90;;;;;;6091894;23;20254;-70
2022/11/14 15:24:28;;;;;;;15.95;8.02;;;9.10;99.90;;;;;;6090699;23;20200;-71
2022/11/14 15:26:56;;;;;;;17.33;9.52;;;9.10;99.90;;;;;;6092409;23;20273;-71
2022/11/14 15:29:25;;;;;;;20.08;9.73;;;9.00;99.90;;;;;;6092516;23;20203;-71
2022/11/14 15:31:55;;;;;;;13.00;8.30;;;8.90;99.90;;;;;;6091834;23;20222;-71
2022/11/14 15:34:25;;;;;;;17.05;8.68;;;8.90;99.90;;;;;;6089659;23;20184;-71
2022/11/14 15:37:21;;;;;;;20.25;9.95;;;8.80;99.90;;;;;;6092448;23;20195;-70
2022/11/14 15:39:48;;;;;;;12.55;8.63;;;8.80;99.90;;;;;;6091956;23;20846;-71
2022/11/14 15:42:19;;;;;;;9.85;5.07;;;8.70;99.90;;;;;;6092365;23;20210;-70
2022/11/14 15:44:47;;;;;;;14.75;7.55;;;8.70;99.90;;;;;;6090817;23;20462;-70
2022/11/14 15:47:20;;;;;;;14.07;8.40;;;8.70;99.90;;;;;;6091502;23;20192;-70
2022/11/14 15:49:59;;;;;;;21.73;9.30;;;8.70;99.90;;;;;;6091806;23;20192;-71
2022/11/14 15:52:30;;;;;;;15.02;11.68;;;8.60;99.90;;;;;;6091741;23;20584;-70
2022/11/14 15:54:56;;;;;;;21.02;9.65;;;8.60;99.90;;;;;;6090527;23;20202;-71
2022/11/14 15:57:24;;;;;;;9.18;8.00;;;8.50;99.90;;;;;;6091373;23;20187;-70
2022/11/14 15:59:51;;;;;;;15.48;9.80;;;8.50;99.90;;;;;;6092354;23;20180;-70
2022/11/14 16:02:21;;;;;;;15.82;10.02;;;8.40;99.90;;;;;;6091582;23;20217;-70
2022/11/14 16:04:49;;;;;;;19.45;10.30;;;8.40;99.90;;;;;;6090582;23;20250;-70
2022/11/14 16:07:17;;;;;;;13.90;10.27;;;8.40;99.90;;;;;;6091848;23;20187;-71
2022/11/14 16:09:44;;;;;;;12.75;8.48;;;8.40;99.90;;;;;;6090402;23;20215;-70
2022/11/14 16:12:11;;;;;;;13.75;6.85;;;8.40;99.90;;;;;;6091477;23;20213;-70
2022/11/14 16:14:39;;;;;;;15.38;10.23;;;8.40;99.90;;;;;;6090715;23;20214;-70
2022/11/14 16:17:05;;;;;;;15.63;10.13;;;8.30;99.90;;;;;;6092858;23;20187;-71
2022/11/14 16:19:33;;;;;;;16.75;7.65;;;8.30;99.90;;;;;;6091655;23;20538;-70
2022/11/14 16:22:01;;;;;;;10.50;8.30;;;8.30;99.90;;;;;;6091522;23;20202;-71
2022/11/14 16:24:29;;;;;;;12.07;8.10;;;8.20;99.90;;;;;;6090503;23;20219;-70
2022/11/14 16:26:56;;;;;;;16.92;9.40;;;8.20;99.90;;;;;;6091453;23;20262;-71
2022/11/14 16:29:23;;;;;;;20.30;11.40;;;8.20;99.90;;;;;;6093356;23;20258;-70
2022/11/14 16:31:52;;;;;;;15.32;11.50;;;8.10;99.90;;;;;;6093526;23;20254;-71
2022/11/14 16:34:21;;;;;;;18.92;12.10;;;8.10;99.90;;;;;;6092956;23;20851;-70
2022/11/14 16:36:56;;;;;;;11.85;8.45;;;8.10;99.90;;;;;;6093991;23;20200;-70
2022/11/14 16:39:23;;;;;;;10.77;8.45;;;8.10;99.90;;;;;;6092480;23;20163;-71
2022/11/14 16:41:50;;;;;;;13.13;10.18;;;8.10;99.90;;;;;;6093159;23;20251;-71
2022/11/14 16:44:17;;;;;;;14.40;7.72;;;8.10;99.90;;;;;;6090764;23;20518;-70
2022/11/14 16:46:44;;;;;;;10.15;7.45;;;8.10;99.90;;;;;;6101184;23;20188;-71
2022/11/14 16:49:18;;;;;;;16.42;8.95;;;8.10;99.90;;;;;;6091455;23;20530;-70
2022/11/14 16:51:47;;;;;;;9.70;7.35;;;8.00;99.90;;;;;;6091572;23;20321;-70
2022/11/14 16:54:13;;;;;;;14.15;9.07;;;8.00;99.90;;;;;;6089888;23;20218;-70
2022/11/14 16:56:40;;;;;;;16.85;8.60;;;8.00;99.90;;;;;;6091814;23;20222;-71
2022/11/14 16:59:08;;;;;;;15.88;7.70;;;7.90;99.90;;;;;;6092669;23;20186;-71
2022/11/14 17:01:35;;;;;;;9.05;8.25;;;7.90;99.90;;;;;;6091342;23;20318;-71
2022/11/14 17:04:02;;;;;;;19.15;7.07;;;7.90;99.90;;;;;;6092398;23;20195;-71
2022/11/14 17:06:30;;;;;;;8.98;5.93;;;8.00;99.90;;;;;;6093013;23;20189;-70
2022/11/14 17:08:58;;;;;;;17.92;8.40;;;8.00;99.90;;;;;;6091914;23;20214;-71
2022/11/14 17:11:25;;;;;;;9.45;7.65;;;8.00;99.90;;;;;;6094348;23;20214;-71
2022/11/14 17:13:52;;;;;;;13.57;8.18;;;8.00;99.90;;;;;;6091425;23;20649;-70
2022/11/14 17:16:19;;;;;;;15.23;10.27;;;7.90;99.90;;;;;;6092031;23;20225;-71
2022/11/14 17:18:50;;;;;;;10.60;7.40;;;7.90;99.90;;;;;;6093135;23;20186;-70
2022/11/14 17:21:17;;;;;;;12.73;8.90;;;7.90;99.90;;;;;;6094368;23;20204;-71
2022/11/14 17:23:45;;;;;;;13.50;10.23;;;8.00;99.90;;;;;;6093408;23;20186;-71
2022/11/14 17:26:13;;;;;;;10.00;7.32;;;8.00;99.90;;;;;;6094372;23;20190;-71
2022/11/14 17:28:42;;;;;;;11.32;8.48;;;8.00;99.90;;;;;;6097621;23;20233;-71
2022/11/14 17:31:09;;;;;;;12.68;9.32;;;7.90;99.90;;;;;;6097813;23;20265;-71
2022/11/14 17:33:36;;;;;;;8.98;7.40;;;8.00;99.90;;;;;;6097062;23;20626;-70
2022/11/14 17:36:04;;;;;;;12.98;8.88;;;8.00;99.90;;;;;;6098870;23;20207;-70
2022/11/14 17:38:32;;;;;;;14.02;8.95;;;8.00;99.90;;;;;;6095428;23;20201;-70
2022/11/14 17:41:00;;;;;;;20.52;11.77;;;8.00;99.90;;;;;;6097708;23;20270;-71
2022/11/14 17:43:27;;;;;;;22.13;8.45;;;8.00;99.90;;;;;;6096490;23;20661;-71
2022/11/14 17:45:54;;;;;;;13.50;8.32;;;7.90;99.90;;;;;;6098758;23;20261;-71
2022/11/14 17:48:21;;;;;;;13.73;6.82;;;7.90;99.90;;;;;;6097057;23;20188;-71
2022/11/14 17:50:48;;;;;;;19.45;8.88;;;7.80;99.90;;;;;;6097968;23;20203;-71
2022/11/14 17:53:15;;;;;;;15.55;9.55;;;7.80;99.90;;;;;;6099697;23;20190;-70
2022/11/14 17:55:41;;;;;;;10.07;6.97;;;7.80;99.90;;;;;;6098435;23;20580;-71
2022/11/14 17:58:09;;;;;;;12.43;7.75;;;7.80;99.90;;;;;;6097779;23;20187;-71
2022/11/14 18:00:36;;;;;;;9.90;8.32;;;7.70;99.90;;;;;;6096713;23;20201;-71
2022/11/14 18:03:04;;;;;;;7.55;6.50;;;7.70;99.90;;;;;;6097945;23;20178;-71
2022/11/14 18:05:30;;;;;;;16.75;10.20;;;7.70;99.90;;;;;;6097709;23;20569;-71
2022/11/14 18:07:57;;;;;;;15.25;11.20;;;7.80;99.90;;;;;;6097310;23;20282;-70
2022/11/14 18:10:24;;;;;;;14.18;6.05;;;7.80;99.90;;;;;;6096480;23;20216;-70
2022/11/14 18:12:50;;;;;;;16.05;10.98;;;7.90;99.90;;;;;;6095310;23;20186;-71
2022/11/14 18:15:18;;;;;;;13.18;7.82;;;7.90;99.90;;;;;;6097565;23;20389;-71
2022/11/14 18:17:45;;;;;;;22.52;11.70;;;8.00;99.90;;;;;;6097882;23;20195;-70
2022/11/14 18:20:12;;;;;;;16.33;9.65;;;8.00;99.90;;;;;;6097254;23;20182;-70
2022/11/14 18:22:40;;;;;;;16.83;9.38;;;8.00;99.90;;;;;;6098029;23;20207;-71